sensor_id;sensor_type;location;lat;lon;timestamp;P1;durP1;ratioP1;P2;durP2;ratioP2
28796;SDS011;24974;54.444;18.560;2022-10-16T05:10:27;34.88;;;28.45;;
28796;SDS011;24974;54.444;18.560;2022-10-16T05:12:58;39.33;;;29.95;;
28796;SDS011;24974;54.444;18.560;2022-10-16T05:15:29;38.83;;;30.92;;
28796;SDS011;24974;54.444;18.560;2022-10-16T05:18:00;40.05;;;31.23;;
28796;SDS011;24974;54.444;18.560;2022-10-16T05:20:30;37.15;;;29.85;;
28796;SDS011;24974;54.444;18.560;2022-10-16T05:23:01;40.72;;;31.20;;
28796;SDS011;24974;54.444;18.560;2022-10-16T05:25:32;44.30;;;32.83;;
28796;SDS011;24974;54.444;18.560;2022-10-16T05:28:03;43.25;;;32.85;;
28796;SDS011;24974;54.444;18.560;2022-10-16T05:30:34;39.63;;;31.65;;
28796;SDS011;24974;54.444;18.560;2022-10-16T05:33:07;40.30;;;32.83;;
28796;SDS011;24974;54.444;18.560;2022-10-16T05:35:38;45.50;;;32.95;;
28796;SDS011;24974;54.444;18.560;2022-10-16T05:38:09;40.45;;;33.60;;
28796;SDS011;24974;54.444;18.560;2022-10-16T05:40:39;44.42;;;34.25;;
28796;SDS011;24974;54.444;18.560;2022-10-16T05:43:10;40.15;;;32.63;;
28796;SDS011;24974;54.444;18.560;2022-10-16T05:45:41;48.33;;;35.22;;
28796;SDS011;24974;54.444;18.560;2022-10-16T05:48:12;43.33;;;34.42;;
28796;SDS011;24974;54.444;18.560;2022-10-16T05:50:43;46.90;;;34.15;;
28796;SDS011;24974;54.444;18.560;2022-10-16T05:53:14;45.28;;;34.33;;
28796;SDS011;24974;54.444;18.560;2022-10-16T05:55:51;46.08;;;34.65;;
28796;SDS011;24974;54.444;18.560;2022-10-16T05:58:22;50.83;;;37.72;;
28796;SDS011;24974;54.444;18.560;2022-10-16T06:00:58;48.08;;;37.85;;
28796;SDS011;24974;54.444;18.560;2022-10-16T06:03:30;49.50;;;39.47;;
28796;SDS011;24974;54.444;18.560;2022-10-16T06:06:11;49.22;;;38.90;;
28796;SDS011;24974;54.444;18.560;2022-10-16T06:08:48;50.58;;;38.35;;
28796;SDS011;24974;54.444;18.560;2022-10-16T06:11:20;50.67;;;39.70;;
28796;SDS011;24974;54.444;18.560;2022-10-16T06:13:57;54.10;;;42.97;;
28796;SDS011;24974;54.444;18.560;2022-10-16T06:16:30;60.40;;;46.40;;
28796;SDS011;24974;54.444;18.560;2022-10-16T06:19:01;66.72;;;47.20;;
28796;SDS011;24974;54.444;18.560;2022-10-16T06:21:36;64.47;;;47.15;;
28796;SDS011;24974;54.444;18.560;2022-10-16T06:24:07;65.10;;;47.90;;
28796;SDS011;24974;54.444;18.560;2022-10-16T06:26:38;74.28;;;50.55;;
28796;SDS011;24974;54.444;18.560;2022-10-16T06:29:09;69.97;;;50.17;;
28796;SDS011;24974;54.444;18.560;2022-10-16T06:31:40;73.45;;;52.63;;
28796;SDS011;24974;54.444;18.560;2022-10-16T06:34:11;82.65;;;54.13;;
28796;SDS011;24974;54.444;18.560;2022-10-16T06:36:42;79.57;;;55.05;;
28796;SDS011;24974;54.444;18.560;2022-10-16T06:39:13;86.60;;;56.47;;
28796;SDS011;24974;54.444;18.560;2022-10-16T06:41:44;74.05;;;52.60;;
28796;SDS011;24974;54.444;18.560;2022-10-16T06:46:52;74.07;;;53.00;;
28796;SDS011;24974;54.444;18.560;2022-10-16T06:49:23;75.30;;;54.88;;
28796;SDS011;24974;54.444;18.560;2022-10-16T06:51:54;80.03;;;54.28;;
28796;SDS011;24974;54.444;18.560;2022-10-16T06:54:25;75.00;;;54.38;;
28796;SDS011;24974;54.444;18.560;2022-10-16T06:56:56;81.80;;;62.97;;
28796;SDS011;24974;54.444;18.560;2022-10-16T06:59:27;72.32;;;53.53;;
28796;SDS011;24974;54.444;18.560;2022-10-16T07:01:57;73.80;;;53.80;;
28796;SDS011;24974;54.444;18.560;2022-10-16T07:04:28;75.35;;;54.97;;
28796;SDS011;24974;54.444;18.560;2022-10-16T07:07:00;78.13;;;53.33;;
28796;SDS011;24974;54.444;18.560;2022-10-16T07:09:31;77.60;;;53.88;;
28796;SDS011;24974;54.444;18.560;2022-10-16T07:12:02;74.25;;;51.58;;
28796;SDS011;24974;54.444;18.560;2022-10-16T07:14:33;71.47;;;51.15;;
28796;SDS011;24974;54.444;18.560;2022-10-16T07:17:04;66.43;;;47.30;;
28796;SDS011;24974;54.444;18.560;2022-10-16T07:19:34;64.55;;;44.97;;
28796;SDS011;24974;54.444;18.560;2022-10-16T07:22:05;62.92;;;46.40;;
28796;SDS011;24974;54.444;18.560;2022-10-16T07:24:36;61.08;;;45.72;;
28796;SDS011;24974;54.444;18.560;2022-10-16T07:27:07;55.47;;;41.50;;
28796;SDS011;24974;54.444;18.560;2022-10-16T07:29:38;57.47;;;41.88;;
28796;SDS011;24974;54.444;18.560;2022-10-16T07:32:09;53.22;;;39.97;;
28796;SDS011;24974;54.444;18.560;2022-10-16T07:34:40;54.47;;;42.17;;
28796;SDS011;24974;54.444;18.560;2022-10-16T07:37:10;56.08;;;42.95;;
28796;SDS011;24974;54.444;18.560;2022-10-16T07:39:41;55.53;;;42.92;;
28796;SDS011;24974;54.444;18.560;2022-10-16T07:42:12;54.97;;;42.53;;
28796;SDS011;24974;54.444;18.560;2022-10-16T07:44:43;59.20;;;44.40;;
28796;SDS011;24974;54.444;18.560;2022-10-16T07:47:13;63.67;;;45.47;;
28796;SDS011;24974;54.444;18.560;2022-10-16T07:49:44;63.30;;;45.20;;
28796;SDS011;24974;54.444;18.560;2022-10-16T07:52:15;62.35;;;44.13;;
28796;SDS011;24974;54.444;18.560;2022-10-16T07:54:46;64.75;;;46.78;;
28796;SDS011;24974;54.444;18.560;2022-10-16T07:57:17;65.85;;;48.03;;
28796;SDS011;24974;54.444;18.560;2022-10-16T07:59:50;61.97;;;46.47;;
28796;SDS011;24974;54.444;18.560;2022-10-16T08:02:20;64.18;;;47.85;;
28796;SDS011;24974;54.444;18.560;2022-10-16T08:04:51;68.65;;;49.38;;
28796;SDS011;24974;54.444;18.560;2022-10-16T08:07:22;67.18;;;47.95;;
28796;SDS011;24974;54.444;18.560;2022-10-16T08:09:53;65.68;;;46.05;;
28796;SDS011;24974;54.444;18.560;2022-10-16T08:12:25;64.82;;;48.22;;
28796;SDS011;24974;54.444;18.560;2022-10-16T08:14:56;62.97;;;44.47;;
28796;SDS011;24974;54.444;18.560;2022-10-16T08:17:27;64.00;;;47.08;;
28796;SDS011;24974;54.444;18.560;2022-10-16T08:19:58;64.25;;;45.97;;
28796;SDS011;24974;54.444;18.560;2022-10-16T08:22:28;65.32;;;47.42;;
28796;SDS011;24974;54.444;18.560;2022-10-16T08:24:59;65.13;;;46.53;;
28796;SDS011;24974;54.444;18.560;2022-10-16T08:27:31;66.90;;;48.20;;
28796;SDS011;24974;54.444;18.560;2022-10-16T08:30:03;65.38;;;47.28;;
28796;SDS011;24974;54.444;18.560;2022-10-16T08:32:34;66.60;;;47.22;;
28796;SDS011;24974;54.444;18.560;2022-10-16T08:35:05;63.92;;;46.35;;
28796;SDS011;24974;54.444;18.560;2022-10-16T08:37:36;63.45;;;46.63;;
28796;SDS011;24974;54.444;18.560;2022-10-16T08:40:12;62.92;;;47.03;;
28796;SDS011;24974;54.444;18.560;2022-10-16T08:43:00;65.63;;;47.53;;
28796;SDS011;24974;54.444;18.560;2022-10-16T08:48:55;62.65;;;45.85;;
28796;SDS011;24974;54.444;18.560;2022-10-16T08:51:30;67.57;;;46.97;;
28796;SDS011;24974;54.444;18.560;2022-10-16T08:54:04;64.47;;;46.88;;
28796;SDS011;24974;54.444;18.560;2022-10-16T08:56:40;58.75;;;43.20;;
28796;SDS011;24974;54.444;18.560;2022-10-16T08:59:11;62.20;;;45.08;;
28796;SDS011;24974;54.444;18.560;2022-10-16T09:01:45;58.50;;;43.28;;
28796;SDS011;24974;54.444;18.560;2022-10-16T09:06:58;58.55;;;42.08;;
28796;SDS011;24974;54.444;18.560;2022-10-16T09:09:47;57.08;;;41.08;;
28796;SDS011;24974;54.444;18.560;2022-10-16T09:12:26;52.38;;;39.17;;
28796;SDS011;24974;54.444;18.560;2022-10-16T09:15:03;60.72;;;41.05;;
28796;SDS011;24974;54.444;18.560;2022-10-16T09:20:49;53.80;;;39.28;;
28796;SDS011;24974;54.444;18.560;2022-10-16T09:23:30;48.42;;;35.60;;
28796;SDS011;24974;54.444;18.560;2022-10-16T09:26:05;51.15;;;38.47;;
28796;SDS011;24974;54.444;18.560;2022-10-16T09:28:40;47.25;;;35.15;;
28796;SDS011;24974;54.444;18.560;2022-10-16T09:31:17;49.72;;;36.58;;
28796;SDS011;24974;54.444;18.560;2022-10-16T09:33:52;44.17;;;35.45;;
28796;SDS011;24974;54.444;18.560;2022-10-16T09:36:25;50.65;;;38.10;;
28796;SDS011;24974;54.444;18.560;2022-10-16T09:39:02;47.33;;;37.25;;
28796;SDS011;24974;54.444;18.560;2022-10-16T09:41:39;49.70;;;36.47;;
28796;SDS011;24974;54.444;18.560;2022-10-16T09:44:23;45.00;;;35.20;;
28796;SDS011;24974;54.444;18.560;2022-10-16T09:47:05;46.60;;;35.25;;
28796;SDS011;24974;54.444;18.560;2022-10-16T09:50:03;46.78;;;35.63;;
28796;SDS011;24974;54.444;18.560;2022-10-16T09:52:45;44.55;;;33.05;;
28796;SDS011;24974;54.444;18.560;2022-10-16T09:55:17;45.03;;;34.53;;
28796;SDS011;24974;54.444;18.560;2022-10-16T09:57:52;46.28;;;34.72;;
28796;SDS011;24974;54.444;18.560;2022-10-16T10:00:24;48.22;;;35.08;;
28796;SDS011;24974;54.444;18.560;2022-10-16T10:02:56;45.90;;;36.15;;
28796;SDS011;24974;54.444;18.560;2022-10-16T10:05:28;45.05;;;36.00;;
28796;SDS011;24974;54.444;18.560;2022-10-16T10:08:00;46.63;;;36.05;;
28796;SDS011;24974;54.444;18.560;2022-10-16T10:10:38;51.17;;;38.05;;
28796;SDS011;24974;54.444;18.560;2022-10-16T10:13:19;47.00;;;37.97;;
28796;SDS011;24974;54.444;18.560;2022-10-16T10:15:52;50.35;;;38.47;;
28796;SDS011;24974;54.444;18.560;2022-10-16T10:18:24;48.88;;;37.70;;
28796;SDS011;24974;54.444;18.560;2022-10-16T10:20:57;49.60;;;38.55;;
28796;SDS011;24974;54.444;18.560;2022-10-16T10:23:31;49.80;;;37.35;;
28796;SDS011;24974;54.444;18.560;2022-10-16T10:26:05;50.85;;;38.17;;
28796;SDS011;24974;54.444;18.560;2022-10-16T10:28:45;48.83;;;37.83;;
28796;SDS011;24974;54.444;18.560;2022-10-16T10:36:46;48.35;;;37.63;;
28796;SDS011;24974;54.444;18.560;2022-10-16T10:39:36;52.03;;;39.85;;
28796;SDS011;24974;54.444;18.560;2022-10-16T10:45:24;53.78;;;39.55;;
28796;SDS011;24974;54.444;18.560;2022-10-16T10:51:09;50.75;;;38.95;;
28796;SDS011;24974;54.444;18.560;2022-10-16T11:02:41;47.75;;;37.25;;
28796;SDS011;24974;54.444;18.560;2022-10-16T11:10:53;39.47;;;31.63;;
28796;SDS011;24974;54.444;18.560;2022-10-16T11:13:30;37.22;;;29.15;;
28796;SDS011;24974;54.444;18.560;2022-10-16T11:16:28;38.65;;;30.38;;
28796;SDS011;24974;54.444;18.560;2022-10-16T11:22:01;31.83;;;26.42;;
28796;SDS011;24974;54.444;18.560;2022-10-16T11:25:02;31.87;;;24.60;;
28796;SDS011;24974;54.444;18.560;2022-10-16T11:28:03;29.85;;;24.50;;
28796;SDS011;24974;54.444;18.560;2022-10-16T11:30:41;33.85;;;25.92;;
28796;SDS011;24974;54.444;18.560;2022-10-16T11:35:52;27.20;;;24.33;;
28796;SDS011;24974;54.444;18.560;2022-10-16T11:44:27;26.60;;;23.77;;
28796;SDS011;24974;54.444;18.560;2022-10-16T11:47:26;24.13;;;21.52;;
28796;SDS011;24974;54.444;18.560;2022-10-16T11:53:01;23.58;;;20.92;;
28796;SDS011;24974;54.444;18.560;2022-10-16T11:55:42;29.17;;;20.33;;
28796;SDS011;24974;54.444;18.560;2022-10-16T11:58:29;20.95;;;17.50;;
28796;SDS011;24974;54.444;18.560;2022-10-16T17:47:49;28.92;;;23.15;;
28796;SDS011;24974;54.444;18.560;2022-10-16T17:50:20;27.40;;;23.63;;
28796;SDS011;24974;54.444;18.560;2022-10-16T17:52:51;31.85;;;23.42;;
28796;SDS011;24974;54.444;18.560;2022-10-16T17:55:22;30.33;;;23.63;;
28796;SDS011;24974;54.444;18.560;2022-10-16T17:57:54;27.92;;;24.92;;
28796;SDS011;24974;54.444;18.560;2022-10-16T18:03:17;31.65;;;26.90;;
28796;SDS011;24974;54.444;18.560;2022-10-16T18:05:54;30.70;;;26.20;;
28796;SDS011;24974;54.444;18.560;2022-10-16T18:08:31;32.92;;;25.17;;
28796;SDS011;24974;54.444;18.560;2022-10-16T18:11:14;32.75;;;29.25;;
28796;SDS011;24974;54.444;18.560;2022-10-16T18:13:54;32.58;;;26.33;;
28796;SDS011;24974;54.444;18.560;2022-10-16T18:16:30;27.70;;;24.60;;
28796;SDS011;24974;54.444;18.560;2022-10-16T18:19:01;30.98;;;23.30;;
28796;SDS011;24974;54.444;18.560;2022-10-16T18:21:33;24.63;;;21.52;;
28796;SDS011;24974;54.444;18.560;2022-10-16T18:24:03;25.95;;;23.20;;
28796;SDS011;24974;54.444;18.560;2022-10-16T18:26:35;25.45;;;22.38;;
28796;SDS011;24974;54.444;18.560;2022-10-16T18:29:06;28.23;;;21.92;;
28796;SDS011;24974;54.444;18.560;2022-10-16T18:31:37;25.90;;;23.30;;
28796;SDS011;24974;54.444;18.560;2022-10-16T18:34:09;23.77;;;21.25;;
28796;SDS011;24974;54.444;18.560;2022-10-16T18:36:40;26.25;;;20.95;;
28796;SDS011;24974;54.444;18.560;2022-10-16T18:39:14;23.08;;;20.77;;
28796;SDS011;24974;54.444;18.560;2022-10-16T18:41:48;27.27;;;22.42;;
28796;SDS011;24974;54.444;18.560;2022-10-16T18:44:21;26.83;;;22.73;;
28796;SDS011;24974;54.444;18.560;2022-10-16T18:46:52;27.65;;;21.90;;
28796;SDS011;24974;54.444;18.560;2022-10-16T18:49:26;28.85;;;21.60;;
28796;SDS011;24974;54.444;18.560;2022-10-16T18:51:57;24.77;;;21.10;;
28796;SDS011;24974;54.444;18.560;2022-10-16T18:54:31;25.83;;;22.65;;
28796;SDS011;24974;54.444;18.560;2022-10-16T18:57:01;26.52;;;21.63;;
28796;SDS011;24974;54.444;18.560;2022-10-16T18:59:33;29.75;;;23.48;;
28796;SDS011;24974;54.444;18.560;2022-10-16T19:02:03;24.83;;;22.02;;
28796;SDS011;24974;54.444;18.560;2022-10-16T19:04:34;25.58;;;21.70;;
28796;SDS011;24974;54.444;18.560;2022-10-16T19:07:06;26.00;;;22.50;;
28796;SDS011;24974;54.444;18.560;2022-10-16T19:09:37;28.23;;;22.20;;
28796;SDS011;24974;54.444;18.560;2022-10-16T19:12:08;25.85;;;22.50;;
28796;SDS011;24974;54.444;18.560;2022-10-16T19:14:39;28.48;;;22.75;;
28796;SDS011;24974;54.444;18.560;2022-10-16T19:17:10;26.83;;;22.75;;
28796;SDS011;24974;54.444;18.560;2022-10-16T19:19:41;30.02;;;23.75;;
28796;SDS011;24974;54.444;18.560;2022-10-16T19:22:11;27.13;;;23.10;;
28796;SDS011;24974;54.444;18.560;2022-10-16T19:24:56;29.60;;;22.45;;
28796;SDS011;24974;54.444;18.560;2022-10-16T19:27:27;31.80;;;23.67;;
28796;SDS011;24974;54.444;18.560;2022-10-16T19:29:58;28.88;;;22.70;;
28796;SDS011;24974;54.444;18.560;2022-10-16T19:32:30;26.67;;;22.50;;
28796;SDS011;24974;54.444;18.560;2022-10-16T19:35:01;28.75;;;24.20;;
28796;SDS011;24974;54.444;18.560;2022-10-16T19:37:32;27.38;;;23.23;;
28796;SDS011;24974;54.444;18.560;2022-10-16T19:40:03;27.90;;;22.65;;
28796;SDS011;24974;54.444;18.560;2022-10-16T19:42:34;28.25;;;23.65;;
28796;SDS011;24974;54.444;18.560;2022-10-16T19:45:05;26.75;;;22.02;;
28796;SDS011;24974;54.444;18.560;2022-10-16T19:47:37;27.25;;;22.67;;
28796;SDS011;24974;54.444;18.560;2022-10-16T19:50:08;25.40;;;21.38;;
28796;SDS011;24974;54.444;18.560;2022-10-16T19:52:39;26.48;;;22.85;;
28796;SDS011;24974;54.444;18.560;2022-10-16T19:55:10;25.73;;;21.63;;
28796;SDS011;24974;54.444;18.560;2022-10-16T19:57:41;30.85;;;22.55;;
28796;SDS011;24974;54.444;18.560;2022-10-16T20:00:13;28.08;;;22.27;;
28796;SDS011;24974;54.444;18.560;2022-10-16T20:02:45;29.58;;;22.42;;
28796;SDS011;24974;54.444;18.560;2022-10-16T20:05:17;26.55;;;23.52;;
28796;SDS011;24974;54.444;18.560;2022-10-16T20:07:48;24.67;;;20.88;;
28796;SDS011;24974;54.444;18.560;2022-10-16T20:10:18;26.42;;;21.05;;
28796;SDS011;24974;54.444;18.560;2022-10-16T20:12:50;26.77;;;21.38;;
28796;SDS011;24974;54.444;18.560;2022-10-16T20:15:21;28.40;;;20.60;;
28796;SDS011;24974;54.444;18.560;2022-10-16T20:17:52;24.73;;;21.25;;
